createdAt,value
2023-01-15T00:00:53.589Z,2.00
2023-01-15T00:03:21.851Z,3.20
2023-01-15T00:05:48.759Z,0.50
2023-01-15T00:08:15.643Z,0.57
2023-01-15T00:10:42.485Z,1.03
2023-01-15T00:13:09.474Z,0.97
2023-01-15T00:15:36.416Z,0.83
2023-01-15T00:18:03.907Z,0.60
2023-01-15T00:20:32.194Z,0.60
2023-01-15T00:22:59.139Z,1.57
2023-01-15T00:25:44.401Z,1.97
2023-01-15T00:28:14.353Z,1.40
2023-01-15T00:30:42.158Z,0.57
2023-01-15T00:33:09.172Z,1.63
2023-01-15T00:35:37.438Z,1.77
2023-01-15T00:38:04.324Z,0.77
2023-01-15T00:40:31.154Z,0.57
2023-01-15T00:42:58.061Z,1.73
2023-01-15T00:45:24.895Z,0.70
2023-01-15T00:47:52.065Z,1.27
2023-01-15T00:50:19.151Z,1.30
2023-01-15T00:52:47.361Z,0.77
2023-01-15T00:55:14.237Z,1.50
2023-01-15T00:57:41.164Z,0.50
2023-01-15T01:00:09.317Z,1.23
2023-01-15T01:02:36.223Z,1.00
2023-01-15T01:05:03.365Z,0.47
2023-01-15T01:07:30.305Z,0.93
2023-01-15T01:09:58.537Z,0.93
2023-01-15T01:12:26.273Z,1.90
2023-01-15T01:14:53.256Z,0.37
2023-01-15T01:17:20.118Z,1.10
2023-01-15T01:19:47.079Z,1.23
2023-01-15T01:22:13.889Z,0.20
2023-01-15T01:24:40.760Z,0.10
2023-01-15T01:27:08.946Z,0.40
2023-01-15T01:29:35.865Z,0.63
2023-01-15T01:32:02.819Z,0.20
2023-01-15T01:34:29.778Z,1.13
2023-01-15T01:36:56.681Z,0.20
2023-01-15T01:39:23.586Z,0.20
2023-01-15T01:41:50.521Z,0.37
2023-01-15T01:45:09.384Z,0.50
2023-01-15T01:47:38.976Z,2.47
2023-01-15T01:50:11.600Z,0.70
2023-01-15T01:52:43.294Z,0.20
2023-01-15T01:55:12.004Z,5.10
2023-01-15T01:57:40.698Z,0.20
2023-01-15T02:00:11.102Z,0.53
2023-01-15T02:02:40.525Z,0.00
2023-01-15T02:05:09.652Z,0.77
2023-01-15T02:07:36.662Z,0.10
2023-01-15T02:10:04.032Z,0.10
2023-01-15T02:12:36.771Z,0.10
2023-01-15T02:15:12.500Z,0.20
2023-01-15T02:17:47.084Z,0.10
2023-01-15T02:20:23.965Z,1.80
2023-01-15T02:23:06.169Z,1.33
2023-01-15T02:25:41.986Z,0.10
2023-01-15T02:28:17.092Z,0.10
2023-01-15T02:30:47.186Z,1.13
2023-01-15T02:33:18.298Z,0.20
2023-01-15T02:35:48.994Z,0.17
2023-01-15T02:38:22.621Z,0.10
2023-01-15T02:40:53.979Z,0.03
2023-01-15T02:43:24.737Z,0.63
2023-01-15T02:45:54.262Z,0.00
2023-01-15T02:48:26.673Z,0.63
2023-01-15T02:50:58.800Z,0.10
2023-01-15T02:53:29.835Z,0.53
2023-01-15T02:56:03.155Z,0.30
2023-01-15T02:58:34.728Z,0.57
2023-01-15T03:01:06.285Z,0.00
2023-01-15T03:03:39.800Z,0.10
2023-01-15T03:06:11.322Z,0.50
2023-01-15T03:08:38.481Z,0.30
2023-01-15T03:11:08.148Z,0.27
2023-01-15T03:13:46.162Z,0.40
2023-01-15T03:16:37.207Z,0.00
2023-01-15T03:19:22.583Z,1.00
2023-01-15T03:21:55.213Z,0.00
2023-01-15T03:24:27.578Z,0.10
2023-01-15T03:26:54.645Z,0.00
2023-01-15T03:29:25.295Z,0.00
2023-01-15T03:31:52.481Z,0.00
2023-01-15T03:34:19.539Z,0.67
2023-01-15T03:36:46.586Z,0.20
2023-01-15T03:39:13.600Z,0.00
2023-01-15T03:41:49.925Z,0.00
2023-01-15T03:44:32.991Z,0.00
2023-01-15T03:47:09.840Z,0.10
2023-01-15T03:49:50.677Z,0.10
2023-01-15T03:52:26.127Z,0.73
2023-01-15T03:55:02.755Z,0.00
2023-01-15T03:57:36.269Z,0.50
2023-01-15T04:00:11.645Z,0.10
2023-01-15T04:02:40.003Z,0.17
2023-01-15T04:05:07.495Z,0.07
2023-01-15T04:07:34.481Z,0.10
2023-01-15T04:10:01.822Z,0.60
2023-01-15T04:12:28.902Z,0.70
2023-01-15T04:14:55.756Z,0.30
2023-01-15T04:17:23.944Z,0.20
2023-01-15T04:19:51.344Z,1.30
2023-01-15T04:22:18.152Z,1.53
2023-01-15T04:24:45.039Z,0.00
2023-01-15T04:27:11.879Z,1.23
2023-01-15T04:29:38.854Z,0.77
2023-01-15T04:32:05.893Z,0.10
2023-01-15T04:34:35.856Z,0.20
2023-01-15T04:37:02.770Z,0.10
2023-01-15T04:39:29.778Z,0.00
2023-01-15T04:42:15.407Z,0.00
2023-01-15T04:44:42.384Z,0.10
2023-01-15T04:47:09.396Z,0.00
2023-01-15T04:49:37.616Z,0.10
2023-01-15T04:52:04.860Z,0.73
2023-01-15T04:54:31.971Z,0.57
2023-01-15T04:56:58.941Z,0.10
2023-01-15T04:59:27.584Z,0.10
2023-01-15T05:02:03.776Z,0.30
2023-01-15T05:04:33.311Z,0.10
2023-01-15T05:07:02.880Z,0.10
2023-01-15T05:09:30.156Z,0.00
2023-01-15T05:11:57.016Z,1.03
2023-01-15T05:14:23.915Z,0.10
2023-01-15T05:16:50.769Z,0.50
2023-01-15T05:19:17.675Z,0.47
2023-01-15T05:21:45.231Z,0.00
2023-01-15T05:24:15.723Z,0.00
2023-01-15T05:26:43.391Z,0.00
2023-01-15T05:29:11.804Z,1.27
2023-01-15T05:31:39.594Z,0.10
2023-01-15T05:34:06.520Z,2.87
2023-01-15T05:36:33.580Z,0.10
2023-01-15T05:39:02.311Z,0.30
2023-01-15T05:41:48.905Z,1.50
2023-01-15T05:44:18.939Z,1.97
2023-01-15T05:46:46.929Z,1.30
2023-01-15T05:49:15.625Z,1.30
2023-01-15T05:51:43.214Z,0.60
2023-01-15T05:54:13.406Z,0.47
2023-01-15T05:56:41.977Z,2.10
2023-01-15T05:59:09.420Z,0.20
2023-01-15T06:01:36.358Z,0.10
2023-01-15T06:04:05.719Z,0.67
2023-01-15T06:06:33.789Z,0.53
2023-01-15T06:09:00.889Z,2.43
2023-01-15T06:11:27.989Z,0.73
2023-01-15T06:13:56.329Z,0.03
2023-01-15T06:16:23.307Z,0.13
2023-01-15T06:18:50.520Z,1.23
2023-01-15T06:21:17.920Z,1.40
2023-01-15T06:23:45.045Z,1.93
2023-01-15T06:26:14.156Z,1.17
2023-01-15T06:28:41.970Z,2.67
2023-01-15T06:31:11.994Z,0.13
2023-01-15T06:33:39.066Z,0.50
2023-01-15T06:36:08.002Z,1.73
2023-01-15T06:38:35.201Z,0.13
2023-01-15T06:41:03.479Z,0.60
2023-01-15T06:43:48.807Z,1.23
2023-01-15T06:46:35.834Z,0.33
2023-01-15T06:49:02.863Z,0.10
2023-01-15T06:51:31.269Z,1.80
2023-01-15T06:53:58.264Z,1.67
2023-01-15T06:56:25.240Z,0.30
2023-01-15T06:58:52.254Z,3.93
2023-01-15T07:01:20.613Z,0.43
2023-01-15T07:03:47.513Z,0.20
2023-01-15T07:06:14.318Z,0.50
2023-01-15T07:08:41.423Z,0.60
2023-01-15T07:11:09.711Z,0.00
2023-01-15T07:13:37.252Z,2.37
2023-01-15T07:16:05.024Z,0.63
2023-01-15T07:18:34.204Z,0.93
2023-01-15T07:21:01.200Z,1.13
2023-01-15T07:23:28.334Z,1.73
2023-01-15T07:25:55.569Z,1.97
2023-01-15T07:28:24.339Z,2.03
2023-01-15T07:30:51.205Z,0.23
2023-01-15T07:33:18.124Z,0.43
2023-01-15T07:35:46.297Z,2.00
2023-01-15T07:38:13.159Z,3.07
2023-01-15T07:40:40.077Z,0.60
2023-01-15T07:43:25.814Z,2.73
2023-01-15T07:46:11.286Z,1.80
2023-01-15T07:48:56.892Z,1.87
2023-01-15T07:51:25.122Z,1.60
2023-01-15T07:53:51.999Z,0.20
2023-01-15T07:56:18.893Z,1.80
2023-01-15T07:58:50.068Z,0.83
2023-01-15T08:01:17.026Z,0.27
2023-01-15T08:03:44.038Z,0.33
2023-01-15T08:06:10.974Z,0.80
2023-01-15T08:08:39.344Z,2.30
2023-01-15T08:11:24.983Z,4.27
2023-01-15T08:14:10.638Z,2.53
2023-01-15T08:16:37.623Z,0.33
2023-01-15T08:19:04.566Z,1.00
2023-01-15T08:21:31.457Z,0.93
2023-01-15T08:23:59.712Z,0.60
2023-01-15T08:26:26.917Z,2.60
2023-01-15T08:28:53.802Z,1.13
2023-01-15T08:31:20.798Z,0.60
2023-01-15T08:33:47.742Z,1.27
2023-01-15T08:36:15.945Z,0.70
2023-01-15T08:38:42.875Z,0.23
2023-01-15T08:41:11.315Z,1.07
2023-01-15T08:43:38.149Z,0.70
2023-01-15T08:46:06.076Z,1.37
2023-01-15T08:48:33.689Z,1.60
2023-01-15T08:51:04.397Z,1.17
2023-01-15T08:53:31.372Z,0.43
2023-01-15T08:55:58.566Z,0.90
2023-01-15T08:58:27.976Z,0.47
2023-01-15T09:00:55.131Z,0.93
2023-01-15T09:03:22.051Z,0.73
2023-01-15T09:05:49.003Z,0.47
2023-01-15T09:08:15.914Z,0.30
2023-01-15T09:10:42.794Z,0.10
2023-01-15T09:13:10.037Z,0.33
2023-01-15T09:15:38.307Z,1.40
2023-01-15T09:18:05.393Z,1.43
2023-01-15T09:20:34.052Z,0.57
2023-01-15T09:23:01.113Z,2.00
2023-01-15T09:25:27.978Z,0.50
2023-01-15T09:27:56.170Z,0.20
2023-01-15T09:30:23.481Z,0.10
2023-01-15T09:32:51.718Z,6.87
2023-01-15T09:35:18.597Z,0.73
2023-01-15T09:37:50.962Z,0.13
2023-01-15T09:40:34.498Z,0.50
2023-01-15T09:43:06.611Z,0.30
2023-01-15T09:45:39.939Z,0.50
2023-01-15T09:48:25.940Z,0.57
2023-01-15T09:51:03.249Z,0.53
2023-01-15T09:53:59.232Z,2.57
2023-01-15T09:56:28.682Z,1.30
2023-01-15T09:58:58.071Z,0.50
2023-01-15T10:01:29.849Z,0.60
2023-01-15T10:04:04.330Z,3.57
2023-01-15T10:06:36.729Z,0.50
2023-01-15T10:09:11.601Z,0.60
2023-01-15T10:12:01.598Z,1.33
2023-01-15T10:14:39.796Z,0.40
2023-01-15T10:17:17.755Z,0.30
2023-01-15T10:19:46.049Z,0.33
2023-01-15T10:22:24.195Z,0.30
2023-01-15T10:24:57.468Z,0.40
2023-01-15T10:27:26.779Z,0.33
2023-01-15T10:29:59.875Z,0.67
2023-01-15T10:32:36.167Z,0.50
2023-01-15T10:35:21.705Z,0.23
2023-01-15T10:37:54.447Z,0.30
2023-01-15T10:40:38.911Z,0.00
2023-01-15T10:43:14.245Z,0.27
2023-01-15T10:45:44.678Z,0.20
2023-01-15T10:48:18.340Z,1.10
2023-01-15T10:50:47.709Z,1.30
2023-01-15T10:53:24.289Z,0.77
2023-01-15T10:55:55.103Z,3.10
2023-01-15T10:58:30.025Z,0.33
2023-01-15T11:01:03.278Z,0.70
2023-01-15T11:03:36.173Z,1.40
2023-01-15T11:06:05.477Z,1.27
2023-01-15T11:09:08.646Z,2.87
2023-01-15T11:11:44.160Z,1.60
2023-01-15T11:14:29.902Z,1.73
2023-01-15T11:17:08.584Z,1.53
2023-01-15T11:19:39.721Z,2.23
2023-01-15T11:22:11.003Z,0.73
2023-01-15T11:24:44.916Z,1.50
2023-01-15T11:27:15.793Z,0.97
2023-01-15T11:29:45.025Z,1.10
2023-01-15T11:32:23.628Z,0.93
2023-01-15T11:34:54.298Z,1.17
2023-01-15T11:37:22.816Z,3.10
2023-01-15T11:39:54.304Z,1.17
2023-01-15T11:42:39.764Z,2.30
2023-01-15T11:45:33.699Z,2.27
2023-01-15T11:48:19.587Z,1.30
2023-01-15T11:50:55.720Z,0.70
2023-01-15T11:53:27.544Z,0.10
2023-01-15T11:56:00.703Z,3.00
2023-01-15T11:58:29.157Z,3.70
2023-01-15T12:00:58.323Z,0.47
2023-01-15T12:03:28.617Z,0.73
2023-01-15T12:05:59.009Z,2.87
2023-01-15T12:08:42.744Z,5.17
2023-01-15T12:11:27.511Z,3.17
2023-01-15T12:14:09.595Z,3.23
2023-01-15T12:16:43.917Z,1.93
2023-01-15T12:19:18.543Z,2.67
2023-01-15T12:22:13.216Z,3.30
2023-01-15T12:25:02.212Z,2.37
2023-01-15T12:27:43.739Z,0.73
2023-01-15T12:30:21.623Z,1.33
2023-01-15T12:32:55.306Z,2.10
2023-01-15T12:35:33.295Z,2.57
2023-01-15T12:38:11.825Z,3.00
2023-01-15T12:40:47.238Z,1.23
2023-01-15T12:43:38.098Z,5.80
2023-01-15T12:46:06.977Z,1.67
2023-01-15T12:48:39.848Z,2.10
2023-01-15T12:51:07.211Z,4.73
2023-01-15T12:53:41.243Z,1.90
2023-01-15T12:56:19.547Z,3.30
2023-01-15T12:58:50.620Z,5.23
2023-01-15T13:01:22.209Z,4.33
2023-01-15T13:03:58.330Z,0.93
2023-01-15T13:06:28.632Z,2.37
2023-01-15T13:09:00.598Z,1.87
2023-01-15T13:11:28.900Z,2.73
2023-01-15T13:13:58.424Z,2.77
2023-01-15T13:16:37.656Z,1.47
2023-01-15T13:19:20.721Z,2.10
2023-01-15T13:21:52.767Z,1.60
2023-01-15T13:24:48.268Z,2.53
2023-01-15T13:27:28.846Z,1.20
2023-01-15T13:30:15.523Z,2.00
2023-01-15T13:32:46.035Z,4.10
2023-01-15T13:35:20.132Z,2.43
2023-01-15T13:37:51.518Z,1.57
2023-01-15T13:40:25.549Z,1.30
2023-01-15T13:42:54.764Z,1.77
2023-01-15T13:45:28.054Z,1.70
2023-01-15T13:47:58.255Z,2.73
2023-01-15T13:50:29.838Z,1.43
2023-01-15T13:53:03.959Z,1.23
2023-01-15T13:55:34.371Z,5.10
2023-01-15T13:58:02.690Z,4.80
2023-01-15T14:00:32.297Z,1.53
2023-01-15T14:03:01.244Z,5.07
2023-01-15T14:05:31.901Z,4.80
2023-01-15T14:08:01.493Z,3.83
2023-01-15T14:10:38.627Z,2.97
2023-01-15T14:13:37.283Z,3.70
2023-01-15T14:16:12.618Z,7.10
2023-01-15T14:19:11.239Z,3.20
2023-01-15T14:21:44.344Z,2.33
2023-01-15T14:24:34.064Z,1.67
2023-01-15T14:27:07.236Z,1.67
2023-01-15T14:30:04.096Z,2.97
2023-01-15T14:32:48.509Z,1.97
2023-01-15T14:35:21.501Z,5.00
2023-01-15T14:37:52.652Z,1.57
2023-01-15T14:40:22.728Z,2.23
2023-01-15T14:43:02.371Z,5.03
2023-01-15T14:45:32.313Z,3.50
2023-01-15T14:48:02.882Z,4.10
2023-01-15T14:50:39.339Z,3.97
2023-01-15T14:53:22.385Z,2.17
2023-01-15T14:55:51.806Z,2.33
2023-01-15T14:58:34.461Z,2.00
2023-01-15T15:01:07.448Z,1.43
2023-01-15T15:03:38.858Z,2.53
2023-01-15T15:06:07.670Z,5.37
2023-01-15T15:08:35.947Z,4.73
2023-01-15T15:11:24.915Z,3.67
2023-01-15T15:13:56.499Z,2.77
2023-01-15T15:16:28.084Z,3.17
2023-01-15T15:19:01.700Z,5.50
2023-01-15T15:21:32.030Z,5.90
2023-01-15T15:24:05.310Z,3.97
2023-01-15T15:26:33.931Z,3.93
2023-01-15T15:29:02.707Z,3.50
2023-01-15T15:31:34.465Z,5.60
2023-01-15T15:34:05.958Z,1.70
2023-01-15T15:36:38.321Z,5.50
2023-01-15T15:39:18.902Z,6.37
2023-01-15T15:42:07.763Z,6.53
2023-01-15T15:44:58.562Z,3.60
2023-01-15T15:47:45.253Z,3.40
2023-01-15T15:50:24.243Z,3.07
2023-01-15T15:52:52.250Z,5.07
2023-01-15T15:55:20.517Z,2.80
2023-01-15T15:57:51.354Z,3.97
2023-01-15T16:00:22.776Z,2.93
2023-01-15T16:02:49.834Z,2.43
2023-01-15T16:05:23.913Z,0.93
2023-01-15T16:07:51.308Z,4.43
2023-01-15T16:10:25.721Z,4.47
2023-01-15T16:12:54.880Z,3.13
2023-01-15T16:15:24.672Z,4.77
2023-01-15T16:17:51.996Z,5.43
2023-01-15T16:20:20.764Z,4.70
2023-01-15T16:22:54.988Z,3.03
2023-01-15T16:25:24.488Z,2.80
2023-01-15T16:27:52.009Z,1.60
2023-01-15T16:30:20.340Z,5.13
2023-01-15T16:32:49.170Z,2.53
2023-01-15T16:35:18.564Z,2.00
2023-01-15T16:37:50.127Z,1.37
2023-01-15T16:40:26.447Z,4.03
2023-01-15T16:43:04.125Z,4.93
2023-01-15T16:45:31.783Z,1.63
2023-01-15T16:48:11.849Z,2.57
2023-01-15T16:50:42.433Z,2.93
2023-01-15T16:53:36.999Z,1.80
2023-01-15T16:56:04.887Z,3.67
2023-01-15T16:58:34.630Z,4.27
2023-01-15T17:01:02.258Z,2.43
2023-01-15T17:03:31.963Z,2.83
2023-01-15T17:06:05.207Z,2.63
2023-01-15T17:08:41.684Z,5.37
2023-01-15T17:11:21.296Z,1.70
2023-01-15T17:13:48.426Z,3.17
2023-01-15T17:16:18.637Z,3.20
2023-01-15T17:18:46.046Z,1.93
2023-01-15T17:21:18.568Z,3.63
2023-01-15T17:23:47.386Z,3.67
2023-01-15T17:26:20.107Z,3.03
2023-01-15T17:28:47.511Z,2.43
2023-01-15T17:31:23.418Z,0.67
2023-01-15T17:33:53.077Z,4.13
2023-01-15T17:36:20.976Z,5.10
2023-01-15T17:38:49.377Z,2.87
2023-01-15T17:41:18.226Z,1.10
2023-01-15T17:43:45.631Z,1.47
2023-01-15T17:46:12.931Z,2.23
2023-01-15T17:48:40.404Z,3.47
2023-01-15T17:51:11.760Z,0.87
2023-01-15T17:53:38.845Z,1.47
2023-01-15T17:56:27.324Z,2.43
2023-01-15T17:59:12.637Z,3.27
2023-01-15T18:02:01.169Z,1.90
2023-01-15T18:04:50.619Z,2.00
2023-01-15T18:07:21.634Z,1.70
2023-01-15T18:09:50.378Z,1.27
2023-01-15T18:12:18.681Z,0.83
2023-01-15T18:14:45.684Z,2.27
2023-01-15T18:17:12.591Z,2.77
2023-01-15T18:19:39.603Z,2.60
2023-01-15T18:22:06.484Z,2.97
2023-01-15T18:24:33.442Z,1.90
2023-01-15T18:27:00.497Z,1.00
2023-01-15T18:29:29.015Z,1.27
2023-01-15T18:31:55.978Z,1.60
2023-01-15T18:34:22.838Z,2.43
2023-01-15T18:36:49.748Z,2.97
2023-01-15T18:39:16.603Z,3.30
2023-01-15T18:41:43.581Z,5.30
2023-01-15T18:44:31.574Z,2.73
2023-01-15T18:47:02.162Z,2.73
2023-01-15T18:49:29.645Z,2.50
2023-01-15T18:52:15.395Z,1.50
2023-01-15T18:54:42.324Z,2.30
2023-01-15T18:57:09.310Z,3.20
2023-01-15T18:59:36.370Z,2.03
2023-01-15T19:02:05.367Z,3.63
2023-01-15T19:04:32.344Z,2.20
2023-01-15T19:06:59.889Z,1.43
2023-01-15T19:09:26.893Z,4.10
2023-01-15T19:11:53.958Z,3.50
2023-01-15T19:14:39.984Z,3.33
2023-01-15T19:17:31.020Z,2.27
2023-01-15T19:19:57.953Z,4.20
2023-01-15T19:22:43.500Z,6.30
2023-01-15T19:25:10.703Z,1.93
2023-01-15T19:27:38.096Z,5.53
2023-01-15T19:30:07.002Z,4.63
2023-01-15T19:32:35.352Z,4.90
2023-01-15T19:35:02.308Z,2.73
2023-01-15T19:37:31.186Z,1.77
2023-01-15T19:39:58.324Z,4.93
2023-01-15T19:42:44.179Z,3.10
2023-01-15T19:45:30.008Z,5.67
2023-01-15T19:48:28.069Z,3.43
2023-01-15T19:50:55.335Z,4.60
2023-01-15T19:53:22.343Z,3.00
2023-01-15T19:55:49.437Z,3.07
2023-01-15T19:58:17.264Z,6.23
2023-01-15T20:00:48.540Z,5.43
2023-01-15T20:03:17.515Z,3.43
2023-01-15T20:05:45.581Z,5.90
2023-01-15T20:08:14.067Z,7.67
2023-01-15T20:10:42.184Z,5.47
2023-01-15T20:13:32.041Z,5.97
2023-01-15T20:16:05.177Z,3.20
2023-01-15T20:18:33.476Z,2.30
2023-01-15T20:21:00.499Z,3.00
2023-01-15T20:23:27.481Z,3.57
2023-01-15T20:25:54.541Z,4.10
2023-01-15T20:28:21.583Z,5.97
2023-01-15T20:30:48.667Z,2.67
2023-01-15T20:33:15.713Z,3.47
2023-01-15T20:35:44.042Z,5.23
2023-01-15T20:38:10.974Z,3.20
2023-01-15T20:40:37.906Z,4.40
2023-01-15T20:43:23.465Z,5.07
2023-01-15T20:45:52.075Z,6.13
2023-01-15T20:48:37.827Z,6.03
2023-01-15T20:51:12.843Z,5.80
2023-01-15T20:53:41.594Z,1.87
2023-01-15T20:56:13.584Z,4.43
2023-01-15T20:58:40.676Z,1.77
2023-01-15T21:01:10.733Z,4.50
2023-01-15T21:03:39.209Z,9.47
2023-01-15T21:06:07.527Z,6.97
2023-01-15T21:08:35.946Z,2.50
2023-01-15T21:11:03.254Z,6.17
2023-01-15T21:13:31.218Z,4.90
2023-01-15T21:16:00.212Z,2.77
2023-01-15T21:18:28.710Z,6.80
2023-01-15T21:20:55.992Z,1.13
2023-01-15T21:23:23.961Z,3.33
2023-01-15T21:25:58.977Z,4.90
2023-01-15T21:28:25.911Z,8.43
2023-01-15T21:30:52.821Z,4.57
2023-01-15T21:33:19.746Z,5.23
2023-01-15T21:35:46.688Z,4.07
2023-01-15T21:38:13.867Z,5.53
2023-01-15T21:40:40.958Z,6.13
2023-01-15T21:43:29.220Z,5.77
2023-01-15T21:46:02.309Z,6.57
2023-01-15T21:48:29.610Z,5.93
2023-01-15T21:50:56.689Z,3.53
2023-01-15T21:53:23.778Z,8.30
2023-01-15T21:55:51.299Z,5.03
2023-01-15T21:58:19.803Z,5.90
2023-01-15T22:00:46.840Z,4.13
2023-01-15T22:03:17.412Z,7.00
2023-01-15T22:05:44.519Z,5.37
2023-01-15T22:08:11.523Z,5.37
2023-01-15T22:10:38.493Z,3.47
2023-01-15T22:13:05.472Z,7.07
2023-01-15T22:15:33.802Z,4.87
2023-01-15T22:18:00.919Z,2.57
2023-01-15T22:20:27.844Z,3.20
2023-01-15T22:22:54.800Z,6.30
2023-01-15T22:25:21.817Z,5.03
2023-01-15T22:27:48.820Z,4.90
2023-01-15T22:30:16.669Z,4.40
2023-01-15T22:32:44.969Z,6.47
2023-01-15T22:35:11.903Z,2.53
2023-01-15T22:37:38.907Z,7.63
2023-01-15T22:40:07.341Z,6.13
2023-01-15T22:42:34.279Z,4.03
2023-01-15T22:45:03.272Z,4.60
2023-01-15T22:47:30.683Z,3.87
2023-01-15T22:49:59.028Z,3.33
2023-01-15T22:52:26.201Z,3.70
2023-01-15T22:54:53.305Z,5.33
2023-01-15T22:57:20.695Z,2.30
2023-01-15T22:59:47.748Z,4.67
2023-01-15T23:02:14.799Z,6.27
2023-01-15T23:04:41.845Z,4.47
2023-01-15T23:07:10.335Z,2.73
2023-01-15T23:09:37.501Z,4.60
2023-01-15T23:12:04.789Z,2.57
2023-01-15T23:14:31.864Z,3.80
2023-01-15T23:16:58.758Z,5.63
2023-01-15T23:19:27.953Z,7.60
2023-01-15T23:21:55.309Z,1.77
2023-01-15T23:24:23.666Z,3.13
2023-01-15T23:26:50.642Z,4.63
2023-01-15T23:29:17.551Z,10.57
2023-01-15T23:31:44.384Z,4.83
2023-01-15T23:34:12.426Z,4.40
2023-01-15T23:36:39.529Z,3.57
2023-01-15T23:39:06.600Z,1.30
2023-01-15T23:41:53.560Z,2.10
2023-01-15T23:44:39.865Z,0.97
2023-01-15T23:47:07.794Z,1.77
2023-01-15T23:49:34.902Z,2.70
2023-01-15T23:52:02.253Z,2.20
2023-01-15T23:54:31.221Z,1.00
2023-01-15T23:57:01.051Z,2.13
2023-01-15T23:59:28.517Z,1.90
